Time;durP1;ratioP1;P1;durP2;ratioP2;P2;SDS_P1;SDS_P2;PMS_P1;PMS_P2;Temp;Humidity;BMP_temperature;BMP_pressure;BME280_temperature;BME280_humidity;BME280_pressure;Samples;Min_cycle;Max_cycle;Signal;HPM_P1;HPM_P2
2022/09/09 00:01:24;;;;;;;2.70;0.90;;;;;;;14.68;75.94;95285.91;4991254;28;20202;-81
2022/09/09 00:04:00;;;;;;;4.70;1.13;;;;;;;14.69;75.77;95286.69;5006163;28;20188;-78
2022/09/09 00:06:35;;;;;;;4.55;1.20;;;;;;;14.68;76.44;95285.09;4976430;28;20633;-78
2022/09/09 00:09:14;;;;;;;3.03;1.02;;;;;;;14.66;76.96;95277.41;4978521;28;20187;-80
2022/09/09 00:11:51;;;;;;;1.88;1.00;;;;;;;14.71;76.67;95267.22;4984711;28;20183;-81
2022/09/09 00:14:28;;;;;;;2.80;0.82;;;;;;;14.87;76.24;95275.91;4987352;28;20182;-81
2022/09/09 00:16:56;;;;;;;5.15;1.20;;;;;;;15.00;75.16;95271.63;4986789;28;20207;-81
2022/09/09 00:19:33;;;;;;;4.63;1.52;;;;;;;15.13;74.34;95270.19;4990176;28;20186;-80
2022/09/09 00:22:23;;;;;;;4.45;0.90;;;;;;;15.25;73.06;95269.53;4975807;28;20335;-80
2022/09/09 00:24:53;;;;;;;3.65;1.10;;;;;;;15.29;72.85;95280.47;4986039;28;20387;-80
2022/09/09 00:27:41;;;;;;;2.45;0.80;;;;;;;15.38;72.78;95273.31;4989963;28;20577;-81
2022/09/09 00:30:13;;;;;;;3.35;1.02;;;;;;;15.40;72.59;95277.38;4987146;28;20200;-81
2022/09/09 00:32:39;;;;;;;5.10;1.23;;;;;;;15.38;73.15;95278.56;5009194;28;20179;-79
2022/09/09 00:35:28;;;;;;;5.15;1.05;;;;;;;15.34;73.31;95283.31;4971106;28;20183;-81
2022/09/09 00:37:56;;;;;;;1.98;1.00;;;;;;;15.26;73.52;95271.16;4988358;28;20208;-81
2022/09/09 00:40:26;;;;;;;3.95;1.13;;;;;;;15.22;73.80;95272.53;4992098;28;20191;-81
2022/09/09 00:43:13;;;;;;;1.42;0.90;;;;;;;15.25;73.59;95271.34;4977782;28;20191;-80
2022/09/09 00:45:56;;;;;;;3.97;1.17;;;;;;;15.06;75.26;95270.13;4989864;28;20203;-81
2022/09/09 00:48:31;;;;;;;2.80;1.13;;;;;;;14.99;75.94;95272.63;4992344;28;20560;-81
2022/09/09 00:51:07;;;;;;;1.30;0.70;;;;;;;15.04;75.69;95266.06;4985813;28;20184;-81
2022/09/09 00:53:38;;;;;;;2.08;0.90;;;;;;;15.02;76.17;95261.84;4991615;28;20179;-81
2022/09/09 00:56:21;;;;;;;7.80;1.30;;;;;;;15.04;75.97;95263.44;4994520;28;20179;-81
2022/09/09 00:59:03;;;;;;;2.67;1.02;;;;;;;15.07;75.10;95270.91;4992066;28;20679;-82
2022/09/09 01:01:28;;;;;;;5.07;1.27;;;;;;;15.11;74.89;95280.03;4988500;28;20651;-82
2022/09/09 01:03:54;;;;;;;3.25;1.15;;;;;;;15.15;74.00;95273.44;4988962;28;20274;-82
2022/09/09 01:06:29;;;;;;;3.67;1.00;;;;;;;15.18;74.01;95278.28;4986441;28;20199;-80
2022/09/09 01:09:16;;;;;;;4.68;1.13;;;;;;;15.20;73.48;95276.34;4997898;28;20730;-80
2022/09/09 01:11:50;;;;;;;6.55;1.02;;;;;;;15.16;74.06;95269.81;4976234;28;20299;-81
2022/09/09 01:14:36;;;;;;;5.20;1.20;;;;;;;15.18;73.15;95273.06;4976179;28;20206;-79
2022/09/09 01:17:15;;;;;;;2.17;0.82;;;;;;;15.24;72.32;95293.28;5004095;28;20257;-82
2022/09/09 01:19:46;;;;;;;2.80;0.95;;;;;;;15.30;71.95;95289.94;4988295;28;20180;-81
2022/09/09 01:22:26;;;;;;;5.32;1.40;;;;;;;15.32;71.94;95300.22;4984287;28;20190;-81
2022/09/09 01:25:09;;;;;;;6.47;1.00;;;;;;;15.47;71.39;95301.00;4989411;28;20262;-82
2022/09/09 01:27:35;;;;;;;2.60;0.90;;;;;;;15.53;69.71;95295.81;4986613;28;20213;-81
2022/09/09 01:30:00;;;;;;;3.10;0.63;;;;;;;15.64;69.83;95291.16;4978206;28;20647;-79
2022/09/09 01:32:46;;;;;;;1.90;0.77;;;;;;;15.75;69.27;95294.09;4967926;28;20188;-79
2022/09/09 01:35:34;;;;;;;6.75;0.90;;;;;;;15.66;71.26;95297.03;4989205;28;20243;-81
2022/09/09 01:37:59;;;;;;;2.97;0.63;;;;;;;15.48;74.63;95295.59;5001113;28;20202;-80
2022/09/09 01:40:25;;;;;;;4.80;1.20;;;;;;;15.46;77.35;95294.97;4983474;28;20188;-81
2022/09/09 01:42:51;;;;;;;2.80;1.05;;;;;;;15.09;79.57;95288.03;4977308;28;20226;-81
2022/09/09 01:45:16;;;;;;;2.70;0.80;;;;;;;15.00;79.66;95292.56;4985902;28;20180;-81
2022/09/09 01:47:41;;;;;;;3.95;0.90;;;;;;;14.81;81.85;95276.59;4983944;28;20287;-82
2022/09/09 01:50:11;;;;;;;3.10;0.80;;;;;;;14.87;81.02;95276.69;4982235;28;20215;-81
2022/09/09 01:52:37;;;;;;;2.75;0.80;;;;;;;14.73;83.48;95274.88;4977721;28;20643;-81
2022/09/09 01:55:03;;;;;;;2.88;0.85;;;;;;;14.66;82.29;95274.78;4986595;28;20195;-81
2022/09/09 01:57:39;;;;;;;3.10;1.13;;;;;;;14.53;82.49;95279.03;4984155;28;20737;-81
2022/09/09 02:00:08;;;;;;;3.80;0.88;;;;;;;14.50;83.74;95289.84;4992403;28;20563;-81
2022/09/09 02:02:43;;;;;;;1.13;0.88;;;;;;;14.44;84.40;95283.47;4978870;28;20183;-81
2022/09/09 02:05:39;;;;;;;2.58;0.70;;;;;;;14.47;83.78;95282.34;4993133;28;20262;-82
2022/09/09 02:08:10;;;;;;;1.98;1.08;;;;;;;14.24;84.96;95288.41;4956040;28;20302;-81
2022/09/09 02:10:46;;;;;;;1.52;0.77;;;;;;;14.27;84.93;95293.25;4972081;28;20184;-81
2022/09/09 02:13:14;;;;;;;3.67;1.10;;;;;;;14.25;84.43;95274.34;4988943;28;20233;-79
2022/09/09 02:15:47;;;;;;;3.47;0.80;;;;;;;14.25;84.68;95274.34;4987513;28;20664;-78
2022/09/09 02:18:15;;;;;;;4.65;1.00;;;;;;;14.23;84.71;95275.53;4974861;28;20703;-79
2022/09/09 02:20:42;;;;;;;2.35;1.10;;;;;;;14.20;84.96;95278.47;4976549;28;20187;-79
2022/09/09 02:23:08;;;;;;;1.30;0.73;;;;;;;14.17;85.81;95284.88;4993691;28;20191;-79
2022/09/09 02:25:35;;;;;;;2.67;0.80;;;;;;;14.18;85.33;95270.81;4968483;28;20298;-80
2022/09/09 02:28:02;;;;;;;4.95;1.20;;;;;;;14.15;85.29;95269.38;4975936;28;20739;-79
2022/09/09 02:30:29;;;;;;;2.63;0.80;;;;;;;14.23;84.71;95267.69;4976498;28;20187;-79
2022/09/09 02:32:56;;;;;;;3.00;0.80;;;;;;;14.20;84.10;95253.16;4974849;28;20659;-80
2022/09/09 02:35:24;;;;;;;1.88;0.90;;;;;;;14.15;84.60;95260.72;4979635;28;20179;-79
2022/09/09 02:37:50;;;;;;;3.88;0.90;;;;;;;14.02;85.79;95252.66;4992840;28;20243;-80
2022/09/09 02:40:15;;;;;;;2.67;0.75;;;;;;;14.04;86.14;95253.28;4977477;28;20198;-79
2022/09/09 02:42:43;;;;;;;1.98;0.88;;;;;;;14.07;85.86;95247.75;4985977;28;20609;-80
2022/09/09 02:45:09;;;;;;;5.10;1.20;;;;;;;13.98;86.57;95248.78;4974522;28;20190;-80
2022/09/09 02:47:38;;;;;;;3.55;0.90;;;;;;;13.95;86.91;95249.13;4987903;28;20296;-79
2022/09/09 02:50:06;;;;;;;2.15;0.80;;;;;;;13.92;87.09;95252.09;4990294;28;20195;-79
2022/09/09 02:52:50;;;;;;;3.88;1.08;;;;;;;13.84;87.82;95248.56;4986516;28;20673;-80
2022/09/09 02:55:24;;;;;;;1.98;0.85;;;;;;;13.78;88.35;95245.81;5004102;28;20618;-80
2022/09/09 02:57:50;;;;;;;1.70;0.93;;;;;;;13.71;89.03;95242.31;4989663;28;20209;-80
2022/09/09 03:00:15;;;;;;;3.33;1.08;;;;;;;13.71;88.67;95248.34;4987391;28;20192;-80
2022/09/09 03:02:42;;;;;;;4.35;0.88;;;;;;;13.71;88.41;95237.91;4973794;28;20596;-80
2022/09/09 03:05:07;;;;;;;2.45;0.85;;;;;;;13.73;88.84;95248.97;4982683;28;20266;-80
2022/09/09 03:07:33;;;;;;;2.05;0.70;;;;;;;13.73;89.28;95250.78;4981584;28;20302;-80
2022/09/09 03:09:58;;;;;;;3.30;0.95;;;;;;;13.52;90.78;95238.38;4972926;28;20231;-79
2022/09/09 03:12:23;;;;;;;2.23;1.03;;;;;;;13.48;90.84;95242.28;4985497;28;20199;-79
2022/09/09 03:14:49;;;;;;;3.23;0.93;;;;;;;13.42;91.34;95240.38;4986050;28;20202;-79
2022/09/09 03:17:15;;;;;;;2.97;0.82;;;;;;;13.40;91.84;95250.16;4980498;28;20203;-80
2022/09/09 03:19:40;;;;;;;2.10;1.10;;;;;;;13.31;92.35;95249.41;4984951;28;20186;-80
2022/09/09 03:22:06;;;;;;;2.50;0.70;;;;;;;13.28;91.06;95255.78;4988771;28;20184;-80
2022/09/09 03:24:31;;;;;;;2.75;0.98;;;;;;;13.32;90.79;95257.03;4985119;28;20270;-80
2022/09/09 03:26:57;;;;;;;4.27;1.10;;;;;;;13.27;90.33;95256.75;4982789;28;20212;-79
2022/09/09 03:29:22;;;;;;;1.45;0.70;;;;;;;13.06;90.82;95256.50;4968941;28;20658;-80
2022/09/09 03:31:47;;;;;;;1.83;0.93;;;;;;;13.17;90.67;95263.97;4982852;28;20192;-78
2022/09/09 03:34:13;;;;;;;1.17;0.70;;;;;;;13.06;91.23;95256.50;4986227;28;20199;-79
2022/09/09 03:36:40;;;;;;;1.90;0.80;;;;;;;13.10;91.03;95263.00;4985374;28;20671;-79
2022/09/09 03:39:06;;;;;;;3.95;1.73;;;;;;;13.06;90.98;95253.88;4979151;28;20179;-80
2022/09/09 03:41:31;;;;;;;1.67;1.00;;;;;;;12.90;91.80;95254.78;4973051;28;20193;-79
2022/09/09 03:43:56;;;;;;;2.03;1.00;;;;;;;12.90;91.97;95253.97;4987466;28;20234;-78
2022/09/09 03:46:24;;;;;;;3.17;0.93;;;;;;;12.88;92.32;95255.91;4979809;28;20211;-79
2022/09/09 03:48:49;;;;;;;1.50;0.90;;;;;;;12.83;92.70;95263.44;4982155;28;20674;-78
2022/09/09 03:51:15;;;;;;;1.87;0.83;;;;;;;12.78;93.11;95258.72;4978838;28;20179;-80
2022/09/09 03:53:41;;;;;;;1.70;0.73;;;;;;;12.72;93.02;95265.44;4990784;28;20352;-79
2022/09/09 03:56:06;;;;;;;2.07;0.77;;;;;;;12.81;91.59;95260.16;5006600;28;20267;-81
2022/09/09 03:58:33;;;;;;;1.83;0.77;;;;;;;12.74;91.21;95266.06;4989644;28;20550;-80
2022/09/09 04:01:04;;;;;;;1.33;0.67;;;;;;;12.88;89.65;95267.16;4986137;28;20915;-80
2022/09/09 04:03:30;;;;;;;3.80;0.67;;;;;;;13.01;87.46;95256.19;4981240;28;20274;-79
2022/09/09 04:05:58;;;;;;;3.00;0.80;;;;;;;13.22;86.03;95264.28;4994754;28;20283;-79
2022/09/09 04:08:25;;;;;;;1.43;0.60;;;;;;;13.37;83.66;95260.94;4986120;28;20203;-79
2022/09/09 04:10:51;;;;;;;2.70;1.00;;;;;;;13.49;82.83;95262.19;4977285;28;20188;-79
2022/09/09 04:13:17;;;;;;;2.03;0.60;;;;;;;13.58;82.24;95258.53;4988074;28;20180;-80
2022/09/09 04:15:53;;;;;;;2.80;0.70;;;;;;;13.56;82.66;95257.91;4968875;28;20203;-80
2022/09/09 04:18:19;;;;;;;1.97;0.70;;;;;;;13.49;83.21;95267.38;4967192;28;20210;-80
2022/09/09 04:20:50;;;;;;;2.30;0.80;;;;;;;13.46;83.59;95259.91;5000434;28;20184;-80
2022/09/09 04:23:16;;;;;;;2.77;0.80;;;;;;;13.45;83.52;95268.72;4974561;28;20184;-80
2022/09/09 04:25:46;;;;;;;4.17;1.00;;;;;;;13.50;82.95;95271.63;4988314;28;20728;-81
2022/09/09 04:28:12;;;;;;;2.38;0.73;;;;;;;13.53;83.03;95266.88;4976595;28;20256;-80
2022/09/09 04:30:39;;;;;;;1.73;0.63;;;;;;;13.35;84.62;95274.16;4992499;28;20262;-79
2022/09/09 04:33:05;;;;;;;1.27;0.82;;;;;;;13.25;85.59;95269.16;4981532;28;20749;-80
2022/09/09 04:35:30;;;;;;;2.93;0.70;;;;;;;13.05;87.34;95267.91;4982869;28;20179;-80
2022/09/09 04:37:56;;;;;;;3.73;0.80;;;;;;;13.00;87.23;95262.41;4976247;28;20588;-80
2022/09/09 04:40:22;;;;;;;2.33;0.67;;;;;;;13.01;86.88;95271.84;4990155;28;20193;-79
2022/09/09 04:42:50;;;;;;;4.60;0.93;;;;;;;12.99;87.30;95271.22;5006173;28;20573;-79
2022/09/09 04:45:15;;;;;;;2.73;0.80;;;;;;;13.07;87.34;95271.16;4978342;28;20179;-80
2022/09/09 04:47:41;;;;;;;1.87;0.70;;;;;;;13.03;87.53;95275.91;4981098;28;20210;-79
2022/09/09 04:50:07;;;;;;;1.88;0.90;;;;;;;12.97;88.30;95283.56;4983017;28;20278;-78
2022/09/09 04:52:37;;;;;;;2.13;0.40;;;;;;;12.97;88.09;95281.78;4985344;28;20314;-79
2022/09/09 04:55:03;;;;;;;0.77;0.50;;;;;;;12.95;88.29;95283.75;4986412;28;20191;-79
2022/09/09 04:57:28;;;;;;;0.50;0.50;;;;;;;12.95;87.70;95286.34;5008363;28;20234;-80
2022/09/09 04:59:54;;;;;;;4.10;1.03;;;;;;;13.11;87.02;95280.28;4964549;28;20200;-80
2022/09/09 05:02:19;;;;;;;2.00;0.90;;;;;;;13.10;87.34;95283.84;4986769;28;20179;-79
2022/09/09 05:04:44;;;;;;;4.20;0.87;;;;;;;13.00;87.44;95288.47;4967413;28;20194;-80
2022/09/09 05:07:10;;;;;;;1.87;0.53;;;;;;;13.10;87.23;95285.66;4969696;28;20687;-79
2022/09/09 05:09:35;;;;;;;2.40;0.90;;;;;;;13.03;87.37;95291.53;4974524;28;20188;-79
2022/09/09 05:12:00;;;;;;;3.15;0.80;;;;;;;13.04;86.82;95300.97;4988535;28;20290;-79
2022/09/09 05:14:27;;;;;;;4.63;1.00;;;;;;;13.09;86.48;95292.66;4984501;28;20183;-80
2022/09/09 05:16:52;;;;;;;2.87;0.70;;;;;;;13.11;85.99;95306.34;4981315;28;20744;-79
2022/09/09 05:19:19;;;;;;;1.43;0.70;;;;;;;13.23;85.95;95309.41;4992391;28;20183;-79
2022/09/09 05:21:45;;;;;;;3.70;0.77;;;;;;;13.19;85.94;95305.50;4972330;28;20195;-79
2022/09/09 05:24:10;;;;;;;2.53;1.03;;;;;;;13.32;85.05;95309.19;4974939;28;20216;-80
2022/09/09 05:26:36;;;;;;;4.60;1.67;;;;;;;13.41;85.05;95311.78;5009699;28;20233;-79
2022/09/09 05:29:01;;;;;;;1.80;0.98;;;;;;;13.43;83.99;95309.81;5008984;28;21014;-80
2022/09/09 05:31:28;;;;;;;1.17;0.80;;;;;;;13.47;84.62;95314.53;4973984;28;20209;-77
2022/09/09 05:33:53;;;;;;;1.90;0.70;;;;;;;13.68;83.44;95313.09;4989670;28;20187;-81
2022/09/09 05:36:20;;;;;;;1.52;0.65;;;;;;;13.69;83.00;95304.28;4975802;28;20665;-78
2022/09/09 05:38:46;;;;;;;3.33;0.80;;;;;;;13.69;82.83;95318.13;4989272;28;20180;-77
2022/09/09 05:41:12;;;;;;;1.33;0.70;;;;;;;13.77;82.20;95315.47;4974394;28;20224;-77
2022/09/09 05:43:38;;;;;;;3.43;0.90;;;;;;;13.70;81.96;95318.97;4970836;28;20278;-79
2022/09/09 05:46:11;;;;;;;3.13;0.77;;;;;;;13.81;82.12;95311.56;4981460;28;20747;-79
2022/09/09 05:48:43;;;;;;;2.63;0.80;;;;;;;13.78;82.30;95311.91;4989347;28;20199;-80
2022/09/09 05:51:12;;;;;;;2.73;0.70;;;;;;;13.84;81.47;95311.19;4973299;28;20298;-79
2022/09/09 05:53:38;;;;;;;1.83;0.80;;;;;;;13.85;81.77;95312.00;4986738;28;20221;-81
2022/09/09 05:56:05;;;;;;;2.80;0.88;;;;;;;13.90;81.28;95317.53;4967828;28;20218;-77
2022/09/09 05:58:34;;;;;;;2.72;0.70;;;;;;;14.01;81.03;95313.69;4972764;28;20191;-80
2022/09/09 06:01:21;;;;;;;2.67;0.90;;;;;;;13.95;80.71;95314.38;4991589;28;20241;-79
2022/09/09 06:03:48;;;;;;;3.53;0.70;;;;;;;13.96;81.01;95319.47;4985432;28;20605;-81
2022/09/09 06:06:20;;;;;;;2.03;0.80;;;;;;;14.12;80.19;95316.72;4988452;28;20217;-80
2022/09/09 06:08:46;;;;;;;3.38;0.82;;;;;;;14.20;80.37;95313.22;4989991;28;20187;-80
2022/09/09 06:11:14;;;;;;;2.95;0.80;;;;;;;14.36;79.57;95318.31;4992754;28;20612;-81
2022/09/09 06:13:40;;;;;;;2.25;0.80;;;;;;;14.35;79.86;95316.69;4976491;28;20619;-81
2022/09/09 06:16:08;;;;;;;2.38;1.13;;;;;;;14.43;79.22;95319.25;4986297;28;20194;-81
2022/09/09 06:18:34;;;;;;;3.17;0.77;;;;;;;14.60;78.76;95317.34;4995134;28;20273;-80
2022/09/09 06:21:04;;;;;;;4.53;1.25;;;;;;;14.59;78.85;95320.13;4982138;28;20614;-79
2022/09/09 06:24:07;;;;;;;2.55;0.95;;;;;;;14.69;78.32;95320.69;4987675;28;20565;-80
2022/09/09 06:27:10;;;;;;;4.95;0.90;;;;;;;15.02;77.14;95314.13;5002562;28;20258;-79
2022/09/09 06:29:36;;;;;;;3.05;0.88;;;;;;;15.13;77.18;95322.50;5002108;28;20192;-79
2022/09/09 06:32:02;;;;;;;2.20;1.00;;;;;;;15.25;76.01;95321.06;5002941;28;20190;-79
2022/09/09 06:34:28;;;;;;;3.08;1.00;;;;;;;15.28;76.26;95325.91;4979922;28;20250;-79
2022/09/09 06:36:53;;;;;;;2.40;0.80;;;;;;;15.46;75.90;95320.28;4988943;28;20208;-80
2022/09/09 06:39:18;;;;;;;2.17;1.05;;;;;;;15.54;75.19;95328.84;4988841;28;20249;-81
2022/09/09 06:41:44;;;;;;;3.88;0.88;;;;;;;15.58;74.53;95326.69;4966837;28;20191;-80
2022/09/09 06:44:11;;;;;;;4.03;0.80;;;;;;;15.80;74.68;95322.31;4995298;28;20202;-80
2022/09/09 06:46:36;;;;;;;4.63;1.00;;;;;;;15.57;74.41;95320.66;4986045;28;20241;-80
2022/09/09 06:49:02;;;;;;;5.30;0.98;;;;;;;15.65;73.74;95327.63;4990434;28;20187;-79
2022/09/09 06:51:30;;;;;;;2.42;0.82;;;;;;;15.76;73.61;95327.13;4991890;28;20232;-79
2022/09/09 06:53:56;;;;;;;3.10;0.90;;;;;;;16.05;73.07;95328.03;4976656;28;20202;-80
2022/09/09 06:56:33;;;;;;;2.20;1.00;;;;;;;16.20;72.41;95325.34;4998221;28;20209;-80
2022/09/09 06:59:03;;;;;;;3.53;0.77;;;;;;;16.27;71.74;95334.91;4983259;28;20219;-80
2022/09/09 07:01:31;;;;;;;5.15;0.90;;;;;;;16.14;72.32;95332.97;4983784;28;20278;-80
2022/09/09 07:03:58;;;;;;;3.25;0.90;;;;;;;16.33;71.86;95336.75;4973832;28;20191;-80
2022/09/09 07:06:28;;;;;;;7.32;1.33;;;;;;;16.47;71.74;95332.44;4979845;28;20230;-81
2022/09/09 07:09:03;;;;;;;2.10;0.88;;;;;;;16.77;70.59;95335.72;4990575;28;20189;-80
2022/09/09 07:11:34;;;;;;;5.55;1.00;;;;;;;16.95;70.01;95332.63;4990300;28;20582;-80
2022/09/09 07:14:00;;;;;;;2.97;0.98;;;;;;;17.14;69.40;95329.34;4986032;28;20195;-80
2022/09/09 07:16:27;;;;;;;3.28;1.00;;;;;;;16.96;69.09;95329.84;4988967;28;20769;-79
2022/09/09 07:18:54;;;;;;;4.50;1.13;;;;;;;16.89;69.19;95331.59;4989147;28;20228;-80
2022/09/09 07:21:21;;;;;;;3.35;0.88;;;;;;;16.77;69.87;95337.53;4997515;28;20187;-80
2022/09/09 07:23:46;;;;;;;2.85;1.00;;;;;;;17.10;70.61;95338.56;4975166;28;20214;-80
2022/09/09 07:26:16;;;;;;;2.92;0.80;;;;;;;17.14;70.55;95339.81;4974268;28;20773;-80
2022/09/09 07:28:42;;;;;;;1.85;0.80;;;;;;;17.16;70.17;95337.81;4976823;28;20194;-80
2022/09/09 07:31:16;;;;;;;3.72;0.85;;;;;;;17.04;70.33;95328.03;4996023;28;20180;-80
2022/09/09 07:33:42;;;;;;;6.55;1.10;;;;;;;16.97;70.05;95330.63;4991206;28;20191;-80
2022/09/09 07:36:14;;;;;;;3.95;0.90;;;;;;;16.82;70.80;95343.03;4979734;28;20221;-80
2022/09/09 07:38:43;;;;;;;4.78;0.90;;;;;;;16.91;71.31;95339.28;4993249;28;20226;-80
2022/09/09 07:41:11;;;;;;;3.92;1.05;;;;;;;16.91;71.50;95334.03;4995518;28;20828;-81
2022/09/09 07:43:41;;;;;;;4.28;0.98;;;;;;;17.12;70.73;95339.19;4985245;28;20188;-81
2022/09/09 07:46:07;;;;;;;4.88;1.17;;;;;;;16.96;71.43;95340.31;4993350;28;20623;-79
2022/09/09 07:48:33;;;;;;;1.90;0.88;;;;;;;16.99;70.37;95352.25;4992997;28;20183;-79
2022/09/09 07:51:07;;;;;;;2.17;0.90;;;;;;;16.56;71.86;95347.03;4992531;28;20190;-79
2022/09/09 07:53:32;;;;;;;3.15;1.42;;;;;;;16.85;70.95;95346.06;4984210;28;20190;-79
2022/09/09 07:56:06;;;;;;;3.75;1.30;;;;;;;16.75;71.85;95336.94;5004669;28;20342;-78
2022/09/09 07:58:31;;;;;;;2.45;1.05;;;;;;;16.60;71.72;95337.78;4994719;28;20648;-77
2022/09/09 08:00:57;;;;;;;3.22;0.90;;;;;;;16.83;72.58;95358.56;4977304;28;20234;-78
2022/09/09 08:03:23;;;;;;;3.42;0.95;;;;;;;16.98;72.24;95351.44;4976166;28;20191;-79
2022/09/09 08:05:48;;;;;;;4.07;1.00;;;;;;;17.39;71.78;95352.47;4992756;28;20204;-79
2022/09/09 08:08:14;;;;;;;5.45;1.35;;;;;;;17.63;70.97;95357.22;4994711;28;20285;-80
2022/09/09 08:10:39;;;;;;;3.53;0.98;;;;;;;17.42;69.70;95362.59;4964088;28;20600;-79
2022/09/09 08:13:05;;;;;;;3.50;1.23;;;;;;;17.65;69.21;95357.81;5005651;28;20196;-79
2022/09/09 08:15:32;;;;;;;1.58;0.80;;;;;;;17.60;68.37;95355.00;4985999;28;20653;-79
2022/09/09 08:17:57;;;;;;;3.10;1.05;;;;;;;17.42;69.43;95345.03;4990105;28;20207;-79
2022/09/09 08:20:23;;;;;;;6.97;1.17;;;;;;;17.34;68.50;95360.13;4977083;28;20198;-79
2022/09/09 08:22:50;;;;;;;5.45;1.05;;;;;;;17.34;67.76;95353.06;4984304;28;20674;-82
2022/09/09 08:25:16;;;;;;;3.95;1.20;;;;;;;17.30;68.36;95357.06;4980612;28;20190;-81
2022/09/09 08:27:41;;;;;;;4.45;1.00;;;;;;;16.84;69.19;95365.44;4968548;28;20593;-83
2022/09/09 08:30:07;;;;;;;3.83;0.82;;;;;;;17.06;69.15;95360.97;4979462;28;20194;-79
2022/09/09 08:32:32;;;;;;;3.92;0.98;;;;;;;17.05;69.34;95356.72;4991285;28;20278;-82
2022/09/09 08:35:00;;;;;;;1.88;0.90;;;;;;;17.12;69.23;95352.31;4975469;28;20176;-82
2022/09/09 08:37:42;;;;;;;6.45;1.08;;;;;;;17.27;67.90;95350.38;5144825;23;20269;-84
2022/09/09 08:41:09;;;;;;;;;;;;;;;;;;;;;
2022/09/09 09:00:10;;;;;;;3.88;0.85;;;;;;;19.07;60.36;95359.50;5050604;28;20222;-82
2022/09/09 09:02:44;;;;;;;3.60;0.80;;;;;;;18.62;60.28;95360.09;5018376;28;20189;-82
2022/09/09 09:05:19;;;;;;;3.80;0.98;;;;;;;18.99;59.68;95357.88;5041921;28;20191;-82
2022/09/09 09:08:17;;;;;;;5.57;1.05;;;;;;;18.87;58.64;95356.91;5030953;28;20697;-81
2022/09/09 09:10:47;;;;;;;5.00;0.85;;;;;;;19.64;57.71;95363.25;4995398;28;20219;-83
2022/09/09 09:13:20;;;;;;;3.83;0.90;;;;;;;19.81;54.94;95359.16;4993641;28;20790;-82
2022/09/09 09:15:50;;;;;;;4.93;0.90;;;;;;;20.02;55.34;95352.75;5005339;28;20202;-82
2022/09/09 09:18:16;;;;;;;3.30;0.93;;;;;;;20.30;54.62;95347.13;4994846;28;20257;-82
2022/09/09 09:20:58;;;;;;;2.17;0.73;;;;;;;20.46;53.73;95346.63;5008488;28;20201;-82
2022/09/09 09:23:26;;;;;;;5.95;1.17;;;;;;;20.63;52.28;95350.38;5002528;28;20183;-81
2022/09/09 09:25:59;;;;;;;4.57;1.55;;;;;;;20.86;51.45;95352.44;4983804;28;20207;-82
2022/09/09 09:28:36;;;;;;;2.38;0.98;;;;;;;20.80;51.22;95355.13;5004021;28;20290;-82
2022/09/09 09:31:07;;;;;;;5.32;1.13;;;;;;;20.48;52.62;95349.06;5010785;28;20174;-81
2022/09/09 09:33:41;;;;;;;4.75;1.38;;;;;;;19.88;53.71;95349.38;5009052;28;20273;-81
2022/09/09 09:36:08;;;;;;;4.72;1.10;;;;;;;19.48;55.10;95349.50;5003915;28;20237;-81
2022/09/09 09:38:34;;;;;;;3.97;1.00;;;;;;;19.32;56.67;95347.31;4999686;28;20182;-81
2022/09/09 09:41:00;;;;;;;1.75;1.38;;;;;;;19.20;56.16;95343.72;4997575;28;20200;-81
2022/09/09 09:43:34;;;;;;;2.63;0.93;;;;;;;18.84;58.55;95354.69;4993555;28;20635;-81
2022/09/09 09:45:59;;;;;;;2.92;1.08;;;;;;;19.01;59.78;95347.19;4995424;28;20206;-81
2022/09/09 09:48:26;;;;;;;6.80;1.70;;;;;;;18.94;58.74;95348.00;5012492;28;20207;-80
2022/09/09 09:51:03;;;;;;;3.95;1.33;;;;;;;18.90;59.14;95351.22;4995332;28;20663;-81
2022/09/09 09:53:31;;;;;;;3.45;1.02;;;;;;;19.11;58.78;95340.47;5001823;28;20190;-79
2022/09/09 09:56:05;;;;;;;3.70;1.00;;;;;;;18.99;59.13;95342.09;5000252;28;20230;-80
2022/09/09 09:58:33;;;;;;;4.40;1.00;;;;;;;19.03;58.95;95337.25;4997445;28;20237;-80
2022/09/09 10:00:59;;;;;;;3.20;1.20;;;;;;;18.87;59.83;95331.41;5009351;28;20178;-80
2022/09/09 10:03:26;;;;;;;4.00;1.13;;;;;;;18.98;57.83;95332.59;5007135;28;20193;-80
2022/09/09 10:05:52;;;;;;;2.70;1.02;;;;;;;19.23;57.27;95335.38;5002015;28;20674;-80
2022/09/09 10:08:18;;;;;;;4.10;1.30;;;;;;;19.30;57.60;95335.38;4994879;28;20210;-80
2022/09/09 10:10:55;;;;;;;4.18;1.05;;;;;;;19.69;56.43;95339.72;5010564;28;20206;-79
2022/09/09 10:13:29;;;;;;;4.18;1.08;;;;;;;19.64;53.94;95348.28;5007345;28;20183;-80
2022/09/09 10:16:32;;;;;;;4.57;1.13;;;;;;;19.55;52.36;95353.94;5007011;28;20296;-80
2022/09/09 10:19:01;;;;;;;1.80;0.90;;;;;;;19.18;54.58;95364.16;5020478;28;20195;-80
2022/09/09 10:21:37;;;;;;;4.53;1.30;;;;;;;18.86;56.07;95368.44;4994685;28;20187;-80
2022/09/09 10:24:28;;;;;;;4.20;1.23;;;;;;;18.53;60.17;95365.75;5001292;28;20182;-80
2022/09/09 10:27:18;;;;;;;5.68;1.05;;;;;;;18.14;59.80;95377.03;5005976;28;20237;-81
2022/09/09 10:30:00;;;;;;;1.80;0.70;;;;;;;17.96;62.32;95369.72;4994207;28;20187;-80
2022/09/09 10:32:38;;;;;;;2.88;1.00;;;;;;;17.94;64.36;95369.91;5022397;28;20179;-79
2022/09/09 10:35:12;;;;;;;6.38;1.10;;;;;;;17.76;63.84;95375.69;4992251;28;20186;-80
2022/09/09 10:37:57;;;;;;;3.80;1.17;;;;;;;17.47;64.05;95381.97;4997484;28;20198;-80
2022/09/09 10:40:33;;;;;;;2.92;1.08;;;;;;;17.10;64.41;95382.38;5023143;28;20182;-80
2022/09/09 10:43:39;;;;;;;3.58;1.25;;;;;;;16.99;66.00;95399.44;5005867;28;20201;-81
2022/09/09 10:46:19;;;;;;;3.38;1.13;;;;;;;16.06;69.86;95416.88;5026172;28;20273;-81
2022/09/09 10:49:15;;;;;;;2.75;0.80;;;;;;;15.27;74.93;95426.31;4989787;28;20667;-82
2022/09/09 10:51:56;;;;;;;1.88;0.80;;;;;;;15.48;75.24;95415.97;5025322;28;20198;-82
2022/09/09 10:54:33;;;;;;;3.97;1.00;;;;;;;15.45;77.40;95416.31;4995949;28;20193;-80
2022/09/09 10:57:04;;;;;;;1.45;0.90;;;;;;;15.33;77.63;95406.47;5014203;28;20198;-81
2022/09/09 10:59:37;;;;;;;1.80;0.80;;;;;;;15.15;78.07;95422.53;5006971;28;20209;-82
2022/09/09 11:02:09;;;;;;;2.00;1.00;;;;;;;15.01;79.49;95413.66;5008252;28;20179;-82
2022/09/09 11:04:41;;;;;;;2.35;1.10;;;;;;;14.65;80.37;95418.72;5007116;28;20220;-79
2022/09/09 11:07:09;;;;;;;7.90;1.45;;;;;;;14.56;82.27;95424.97;4997769;28;20210;-81
2022/09/09 11:09:39;;;;;;;4.57;1.10;;;;;;;14.55;83.89;95423.38;5003053;28;20187;-81
2022/09/09 11:12:05;;;;;;;2.92;0.98;;;;;;;14.50;84.68;95421.28;4992804;28;20208;-81
2022/09/09 11:14:42;;;;;;;3.33;1.00;;;;;;;14.20;84.33;95417.69;5027362;28;20194;-79
2022/09/09 11:17:15;;;;;;;3.90;0.80;;;;;;;14.26;86.19;95414.41;5030205;28;20198;-79
2022/09/09 11:19:42;;;;;;;2.80;0.90;;;;;;;14.14;87.15;95410.56;5033977;28;20199;-79
2022/09/09 11:22:16;;;;;;;2.15;0.80;;;;;;;14.32;85.60;95407.69;5015182;28;20254;-81
2022/09/09 11:24:45;;;;;;;5.32;0.73;;;;;;;14.66;84.82;95399.41;5019936;28;20198;-79
2022/09/09 11:27:16;;;;;;;3.35;0.90;;;;;;;14.61;84.01;95394.75;5014538;28;20210;-80
2022/09/09 11:29:50;;;;;;;2.65;0.80;;;;;;;14.37;86.38;95390.47;5011163;28;20206;-80
2022/09/09 11:32:53;;;;;;;3.13;1.00;;;;;;;15.04;84.91;95384.56;5006449;28;20193;-80
2022/09/09 11:35:40;;;;;;;1.92;0.60;;;;;;;15.12;81.78;95375.81;5006242;28;20175;-80
2022/09/09 11:38:17;;;;;;;1.88;0.60;;;;;;;15.54;80.88;95368.09;4996410;28;20213;-79
2022/09/09 11:40:43;;;;;;;2.47;0.80;;;;;;;15.76;81.05;95376.88;5006647;28;20684;-79
2022/09/09 11:43:12;;;;;;;1.83;0.70;;;;;;;15.97;79.95;95367.44;4992756;28;20233;-79
2022/09/09 11:45:40;;;;;;;1.73;0.73;;;;;;;16.28;79.26;95364.53;4987531;28;20187;-80
2022/09/09 11:48:08;;;;;;;1.40;0.75;;;;;;;16.51;79.27;95359.88;5001802;28;20207;-80
2022/09/09 11:50:37;;;;;;;3.58;0.85;;;;;;;16.98;78.43;95359.28;4989472;28;20179;-82
2022/09/09 11:53:07;;;;;;;2.45;0.65;;;;;;;17.42;77.61;95354.72;5015580;28;20227;-82
2022/09/09 11:55:34;;;;;;;2.47;0.70;;;;;;;16.97;76.10;95356.88;5006374;28;20183;-81
2022/09/09 11:58:03;;;;;;;2.63;0.80;;;;;;;17.27;75.64;95355.63;5008882;28;20198;-83
2022/09/09 12:00:44;;;;;;;1.45;0.77;;;;;;;17.47;75.68;95345.22;5014689;28;20178;-82
2022/09/09 12:03:48;;;;;;;2.75;0.90;;;;;;;17.34;73.69;95339.94;5008496;28;20178;-81
2022/09/09 12:06:27;;;;;;;2.50;0.77;;;;;;;17.30;72.37;95335.25;5016316;28;20698;-81
2022/09/09 12:08:56;;;;;;;2.13;0.70;;;;;;;17.24;72.62;95335.03;5011101;28;20187;-83